• Join FlightAware (Why Join?)
  • Login
  • US Flag 
10:36AM EDT


 

Airport Tracker/Info


-or-


 

Live Flight TrackerFlight Track Log ✈ ASQ5958 ✈ 26-Oct-2013 ✈ KBNA - KEWR

Flight Track Log - Related Links

Times and Time Zones

All times are in EDT time to prevent confusion due to time zone crossing. See the ASQ5958 flight status page for this flight to view local times or setup timezone preferences in your user account.

Time Position Orientation Groundspeed Altitude Reporting Facility
EDT Latitude Longitude Course Direction KTS MPH feet Rate Location/Type
07:08AM 36.1333 -86.6833 68° East 152 175 1,000  Level Nashville TRACON
07:08AM 36.1333 -86.7000 270° West 152 175 1,200 1,980 Climbing Nashville TRACON
07:09AM 36.1500 -86.7333 302° West 178 205 3,200 2,100 Climbing Nashville TRACON
07:10AM 36.1178 -86.7264 170° South 218 251 4,800 2,100 Climbing Memphis Center
07:11AM 36.2755 -86.3361 64° Northeast  Level Estimated
07:11AM 36.1281 -86.6464 81° East 244 281 6,800  Level Memphis Center
07:12AM 36.3257 -86.2218 64° Northeast  Level Estimated
07:12AM 36.1378 -86.5533 83° East 262 302 8,900  Level Memphis Center
07:13AM 36.3757 -86.1074 68° East  Level Estimated
07:13AM 36.1514 -86.4575 80° East 269 310 10,800  Level Memphis Center
07:14AM 36.4256 -85.9928 68° East  Level Estimated
07:14AM 36.1647 -86.3492 81° East 305 351 12,300  Level Memphis Center
07:15AM 36.1797 -86.2325 81° East 331 381 13,800 1,500 Climbing Memphis Center
07:16AM 36.1942 -86.1083 82° East 353 406 15,400 1,380 Climbing Memphis Center
07:17AM 36.2281 -86.0064 68° East 353 406 16,600 1,320 Climbing Memphis Center
07:18AM 36.2783 -85.8956 61° Northeast 358 412 18,100 1,260 Climbing Memphis Center
07:19AM 36.3172 -85.8083 61° Northeast 370 426 18,900 1,260 Climbing Indianapolis Center
07:20AM 36.3714 -85.6947 59° Northeast 379 436 20,400 1,440 Climbing Indianapolis Center
07:21AM 36.4253 -85.5781 60° Northeast 385 443 21,900 1,380 Climbing Indianapolis Center
07:22AM 36.4817 -85.4614 59° Northeast 392 451 23,300 1,380 Climbing Indianapolis Center
07:23AM 36.5378 -85.3439 59° Northeast 393 452 24,800 1,440 Climbing Indianapolis Center
07:24AM 36.5925 -85.2244 60° Northeast 395 455 26,300 1,380 Climbing Indianapolis Center
07:25AM 36.6394 -85.0997 65° Northeast 398 458 27,700 1,140 Climbing Indianapolis Center
07:26AM 36.6794 -84.9689 69° East 402 463 28,700 960 Climbing Indianapolis Center
07:27AM 36.7194 -84.8347 70° East 410 472 29,700 960 Climbing Indianapolis Center
07:28AM 36.7614 -84.6992 69° East 418 481 30,700 960 Climbing Indianapolis Center
07:29AM 36.8028 -84.5608 69° East 425 489 31,700 1,020 Climbing Indianapolis Center
07:30AM 36.8500 -84.4039 69° East 433 498 32,800 1,020 Climbing Indianapolis Center
07:31AM 36.8925 -84.2614 70° East 439 505 33,800 900 Climbing Indianapolis Center
07:32AM 36.9356 -84.1175 69° East 441 507 34,700 540 Climbing Indianapolis Center
07:33AM 36.9781 -83.9728 70° East 447 514 35,000 120 Climbing Indianapolis Center
07:34AM 37.0244 -83.8214 69° East 463 533 35,000  Level Indianapolis Center
07:35AM 37.0719 -83.6647 69° East 483 556 35,000  Level Indianapolis Center
07:36AM 37.1183 -83.5081 70° East 484 557 35,000  Level Indianapolis Center
07:37AM 37.1633 -83.3503 70° East 482 555 35,000  Level Indianapolis Center
07:38AM 37.2086 -83.1894 70° East 488 562 35,000  Level Indianapolis Center
07:39AM 37.2544 -83.0317 70° East 481 554 35,000  Level Indianapolis Center
07:40AM 37.3006 -82.8703 70° East 485 558 35,000  Level Indianapolis Center
07:41AM 37.3461 -82.7106 70° East 485 558 35,000  Level Indianapolis Center
07:42AM 37.3903 -82.5533 70° East 477 549 35,000  Level Indianapolis Center
07:43AM 37.4353 -82.3933 70° East 481 554 35,000  Level Indianapolis Center
07:44AM 37.4869 -82.2075 71° East 482 555 35,000  Level Indianapolis Center
07:45AM 37.5317 -82.0492 70° East 478 550 35,000  Level Indianapolis Center
07:46AM 37.5758 -81.8881 71° East 485 558 35,000  Level Indianapolis Center
07:47AM 37.6186 -81.7269 71° East 483 556 35,000  Level Indianapolis Center
07:48AM 37.6636 -81.5667 70° East 484 557 35,000  Level Indianapolis Center
07:49AM 37.7061 -81.4025 72° East 488 562 35,000  Level Indianapolis Center
07:50AM 37.7492 -81.2444 71° East 487 560 35,000  Level Indianapolis Center
07:51AM 37.7828 -81.0819 75° East 490 564 35,000  Level Indianapolis Center
07:52AM 37.7950 -80.9111 85° East 500 575 35,000  Level Indianapolis Center
07:53AM 37.8058 -80.7389 85° East 498 573 35,000  Level Indianapolis Center
07:54AM 37.8172 -80.5589 85° East 503 579 35,000  Level Indianapolis Center
07:55AM 37.8294 -80.3619 85° East 502 578 35,000  Level Indianapolis Center
07:56AM 37.8394 -80.1900 86° East 502 578 35,000  Level Indianapolis Center
07:57AM 37.8503 -80.0164 85° East 504 580 35,000  Level Indianapolis Center
07:58AM 37.8608 -79.8425 86° East 506 582 35,000  Level Indianapolis Center
07:59AM 37.8697 -79.6678 86° East 505 581 35,000  Level Indianapolis Center
08:00AM 37.8814 -79.4575 86° East 507 583 35,000  Level Indianapolis Center
08:02AM 37.8953 -79.2892 84° East 498 573 35,000  Level Washington Center
08:03AM 37.9047 -79.1106 86° East 498 573 35,000  Level Washington Center
08:04AM 37.9244 -78.9378 82° East 498 573 35,000  Level Washington Center
08:05AM 37.9458 -78.7622 81° East 498 573 35,000  Level Washington Center
08:06AM 37.9669 -78.5892 81° East 503 579 35,000  Level Washington Center
08:07AM 37.9883 -78.3978 82° East 503 579 35,000  Level Washington Center
08:08AM 38.0089 -78.2219 82° East 503 579 35,000  Level Washington Center
08:09AM 38.0494 -78.0811 70° East 497 572 35,000  Level Washington Center
08:10AM 38.1211 -77.9356 58° Northeast 476 548 35,000  Level Washington Center
08:11AM 38.1947 -77.7925 57° Northeast 471 542 35,000  Level Washington Center
08:12AM 38.2661 -77.6464 58° Northeast 477 549 35,000  Level Washington Center
08:13AM 38.3375 -77.5031 58° Northeast 482 555 35,000  Level Washington Center
08:14AM 38.4064 -77.3564 59° Northeast 482 555 35,000  Level Washington Center
08:15AM 38.4792 -77.2122 57° Northeast 482 555 35,000  Level Washington Center
08:16AM 38.5500 -77.0650 58° Northeast 482 555 35,000  Level Washington Center
08:17AM 38.6267 -76.9256 55° Northeast 482 555 35,000  Level Washington Center
08:18AM 38.7194 -76.8103 44° Northeast 471 542 35,000  Level Washington Center
08:19AM 38.8125 -76.6892 45° Northeast 466 536 35,000  Level Washington Center
08:20AM 38.9053 -76.5706 45° Northeast 466 536 35,000 -1,020 Level Washington Center
08:21AM 38.9978 -76.4517 45° Northeast 466 536 33,100 -2,520 Descending Washington Center
08:22AM 39.0883 -76.3269 47° Northeast 466 536 30,100 -2,640 Descending Washington Center
08:23AM 39.1828 -76.2075 44° Northeast 471 542 27,700 -1,620 Descending Washington Center
08:24AM 39.2792 -76.0850 45° Northeast 476 548 26,900 -360 Descending Washington Center
08:25AM 39.3775 -75.9675 43° Northeast 476 548 27,000  Climbing Washington Center
08:26AM 39.4758 -75.8522 42° Northeast 476 548 27,000  Level Washington Center
08:27AM 39.5761 -75.7342 42° Northeast 476 548 27,000 -660 Level Washington Center
08:28AM 39.6739 -75.6158 43° Northeast 476 548 25,700 -2,220 Descending Washington Center
08:29AM 39.7719 -75.4969 43° Northeast 476 548 22,700 -3,120 Descending Washington Center
08:30AM 39.8633 -75.3861 43° Northeast 462 532 19,600 -3,000 Descending Washington Center
08:31AM 39.9506 -75.2803 43° Northeast 444 511 16,800 -2,880 Descending Washington Center
08:32AM 40.0358 -75.1769 43° Northeast 420 483 13,800 -2,820 Descending Washington Center
08:33AM 40.1208 -75.0706 44° Northeast 397 457 11,100 -1,800 Descending Washington Center
08:34AM 40.2167 -74.9667 40° Northeast 304 350 9,500 -1,260 Descending New York TRACON
08:35AM 40.2667 -74.8833 52° Northeast 301 346 8,100 -840 Descending New York TRACON
08:36AM 40.3167 -74.8167 45° Northeast 302 348 8,000 -540 Descending New York TRACON
08:37AM 40.3833 -74.7333 44° Northeast 306 352 7,200 -900 Descending New York TRACON
08:38AM 40.4333 -74.6667 45° Northeast 306 352 6,300 -660 Descending New York TRACON
08:39AM 40.5000 -74.6500 11° North 277 319 6,000 -180 Descending New York TRACON
08:40AM 40.5833 -74.6333 North 272 313 6,000  Level New York TRACON
08:41AM 40.6500 -74.6167 11° North 274 315 6,100  Climbing New York TRACON
08:41AM 40.7167 -74.5833 21° North 273 314 6,100 -300 Level New York TRACON
08:43AM 40.7833 -74.5167 37° Northeast 290 334 5,500 -720 Descending New York TRACON
08:43AM 40.8333 -74.4667 37° Northeast 290 334 4,700 -780 Descending New York TRACON
08:44AM 40.8667 -74.3833 62° Northeast 278 320 4,100 -780 Descending New York TRACON
08:45AM 40.9000 -74.2833 66° East 279 321 3,200 -540 Descending New York TRACON
08:46AM 40.9167 -74.1833 78° East 277 319 3,100 -60 Descending New York TRACON
08:47AM 40.8833 -74.1333 131° Southeast 224 258 3,100  Level New York TRACON
08:48AM 40.8500 -74.0833 131° Southeast 185 213 3,100 -360 Level New York TRACON
08:49AM 40.8000 -74.0833 180° South 172 198 2,400 -660 Descending New York TRACON
08:50AM 40.7500 -74.0833 180° South 177 204 1,800 -600 Descending New York TRACON
08:51AM 40.7167 -74.1000 201° Southwest 123 142 1,300 -660 Descending New York TRACON
08:52AM 40.7000 -74.1333 237° Southwest 124 143 500 -840 Descending New York TRACON